createdAt,value
2019-05-25T00:00:37.529Z,24.10
2019-05-25T00:03:08.798Z,24.10
2019-05-25T00:05:39.926Z,24.10
2019-05-25T00:08:10.707Z,24.10
2019-05-25T00:10:41.500Z,24.10
2019-05-25T00:13:12.443Z,24.10
2019-05-25T00:15:43.114Z,24.10
2019-05-25T00:18:13.831Z,24.00
2019-05-25T00:20:44.749Z,24.10
2019-05-25T00:23:15.778Z,24.10
2019-05-25T00:25:46.652Z,24.10
2019-05-25T00:28:17.480Z,24.10
2019-05-25T00:30:48.528Z,24.10
2019-05-25T00:33:19.328Z,24.10
2019-05-25T00:35:50.098Z,24.10
2019-05-25T00:38:20.679Z,24.10
2019-05-25T00:40:51.662Z,24.10
2019-05-25T00:43:22.488Z,24.10
2019-05-25T00:45:53.307Z,24.10
2019-05-25T00:48:24.219Z,24.10
2019-05-25T00:50:55.123Z,24.10
2019-05-25T00:53:26.129Z,24.20
2019-05-25T00:55:56.993Z,24.10
2019-05-25T00:58:27.950Z,24.20
2019-05-25T01:00:58.676Z,24.20
2019-05-25T01:03:29.761Z,24.20
2019-05-25T01:06:00.753Z,24.20
2019-05-25T01:08:31.701Z,24.10
2019-05-25T01:11:02.630Z,24.10
2019-05-25T01:13:33.479Z,24.00
2019-05-25T01:16:04.301Z,24.00
2019-05-25T01:18:35.238Z,24.00
2019-05-25T01:21:06.005Z,24.00
2019-05-25T01:23:36.914Z,24.00
2019-05-25T01:26:07.651Z,24.00
2019-05-25T01:28:38.473Z,24.00
2019-05-25T01:31:09.127Z,24.00
2019-05-25T01:33:39.848Z,24.00
2019-05-25T01:36:10.635Z,24.00
2019-05-25T01:38:41.554Z,24.00
2019-05-25T01:41:12.187Z,24.00
2019-05-25T01:43:42.800Z,24.10
2019-05-25T01:46:13.861Z,24.10
2019-05-25T01:48:44.581Z,24.10
2019-05-25T01:51:15.646Z,24.10
2019-05-25T01:53:46.562Z,24.10
2019-05-25T01:56:17.402Z,24.20
2019-05-25T01:58:48.234Z,24.20
2019-05-25T02:01:18.900Z,24.10
2019-05-25T02:03:49.782Z,24.10
2019-05-25T02:06:20.629Z,24.10
2019-05-25T02:08:51.454Z,24.10
2019-05-25T02:11:22.110Z,24.10
2019-05-25T02:13:53.148Z,24.10
2019-05-25T02:16:24.151Z,24.10
2019-05-25T02:18:55.112Z,24.10
2019-05-25T02:21:25.862Z,24.10
2019-05-25T02:23:56.555Z,24.10
2019-05-25T02:26:27.416Z,24.10
2019-05-25T02:28:58.401Z,24.10
2019-05-25T02:31:29.385Z,24.10
2019-05-25T02:34:00.191Z,24.00
2019-05-25T02:36:30.758Z,24.00
2019-05-25T02:39:01.642Z,24.00
2019-05-25T02:41:32.732Z,24.10
2019-05-25T02:44:03.625Z,24.10
2019-05-25T02:46:34.551Z,24.10
2019-05-25T02:49:05.286Z,24.10
2019-05-25T02:51:36.101Z,24.10
2019-05-25T02:54:06.862Z,24.10
2019-05-25T02:56:37.887Z,24.10
2019-05-25T02:59:08.771Z,24.10
2019-05-25T03:01:39.760Z,24.10
2019-05-25T03:04:10.616Z,24.10
2019-05-25T03:06:41.954Z,24.10
2019-05-25T03:09:12.934Z,24.10
2019-05-25T03:11:43.644Z,24.10
2019-05-25T03:14:14.560Z,24.10
2019-05-25T03:16:45.633Z,24.10
2019-05-25T03:19:16.373Z,24.10
2019-05-25T03:21:47.134Z,24.00
2019-05-25T03:24:18.118Z,24.10
2019-05-25T03:26:48.745Z,24.10
2019-05-25T03:29:19.709Z,24.00
2019-05-25T03:31:50.458Z,24.00
2019-05-25T03:34:21.305Z,24.00
2019-05-25T03:36:52.206Z,24.10
2019-05-25T03:39:22.969Z,24.10
2019-05-25T03:41:53.786Z,24.10
2019-05-25T03:44:24.757Z,24.10
2019-05-25T03:46:55.318Z,24.10
2019-05-25T03:49:26.167Z,24.10
2019-05-25T03:51:57.010Z,24.10
2019-05-25T03:54:27.788Z,24.10
2019-05-25T03:56:58.355Z,24.10
2019-05-25T03:59:29.154Z,24.00
2019-05-25T04:02:00.036Z,24.00
2019-05-25T04:04:30.820Z,24.00
2019-05-25T04:07:01.611Z,24.00
2019-05-25T04:09:32.290Z,24.00
2019-05-25T04:12:03.258Z,24.00
2019-05-25T04:14:34.250Z,24.10
2019-05-25T04:17:05.115Z,24.00
2019-05-25T04:19:36.041Z,24.10
2019-05-25T04:22:06.942Z,24.00
2019-05-25T04:24:37.479Z,24.00
2019-05-25T04:27:08.263Z,24.00
2019-05-25T04:29:39.029Z,24.00
2019-05-25T04:32:09.828Z,24.10
2019-05-25T04:34:40.538Z,24.10
2019-05-25T04:37:11.272Z,24.10
2019-05-25T04:39:42.018Z,24.10
2019-05-25T04:42:12.865Z,24.10
2019-05-25T04:44:43.840Z,24.10
2019-05-25T04:47:26.588Z,24.10
2019-05-25T04:49:46.896Z,24.10
2019-05-25T04:52:17.683Z,24.10
2019-05-25T04:54:48.470Z,24.10
2019-05-25T04:57:19.508Z,24.10
2019-05-25T04:59:50.349Z,24.10
2019-05-25T05:02:21.225Z,24.10
2019-05-25T05:04:52.161Z,24.00
2019-05-25T05:07:23.056Z,24.10
2019-05-25T05:10:02.122Z,24.00
2019-05-25T05:12:26.502Z,24.00
2019-05-25T05:14:57.332Z,24.00
2019-05-25T05:17:28.222Z,24.00
2019-05-25T05:19:59.210Z,24.00
2019-05-25T05:22:30.142Z,24.00
2019-05-25T05:25:01.089Z,24.10
2019-05-25T05:27:31.738Z,24.10
2019-05-25T05:30:02.554Z,24.10
2019-05-25T05:32:33.629Z,24.10
2019-05-25T05:35:05.549Z,24.10
2019-05-25T05:37:37.071Z,24.00
2019-05-25T05:40:09.033Z,24.10
2019-05-25T05:42:40.507Z,24.10
2019-05-25T05:45:11.748Z,24.10
2019-05-25T05:47:42.826Z,24.10
2019-05-25T05:50:13.754Z,24.10
2019-05-25T05:52:44.486Z,24.00
2019-05-25T05:55:17.505Z,24.10
2019-05-25T05:57:48.411Z,24.10
2019-05-25T06:00:19.038Z,24.10
2019-05-25T06:02:49.885Z,24.10
2019-05-25T06:05:20.711Z,24.00
2019-05-25T06:07:51.533Z,24.00
2019-05-25T06:10:22.604Z,24.00
2019-05-25T06:12:53.532Z,23.10
2019-05-25T06:15:26.654Z,22.90
2019-05-25T06:17:58.580Z,22.00
2019-05-25T06:20:31.605Z,21.60
2019-05-25T06:23:02.623Z,21.30
2019-05-25T06:25:34.314Z,21.70
2019-05-25T06:28:04.993Z,22.20
2019-05-25T06:30:35.504Z,22.60
2019-05-25T06:33:06.362Z,22.90
2019-05-25T06:35:37.137Z,23.00
2019-05-25T06:38:08.146Z,23.20
2019-05-25T06:40:38.850Z,23.30
2019-05-25T06:43:09.519Z,23.30
2019-05-25T06:45:40.325Z,23.30
2019-05-25T06:48:11.199Z,23.40
2019-05-25T06:50:41.972Z,23.50
2019-05-25T06:53:12.696Z,23.50
2019-05-25T06:55:43.871Z,23.50
2019-05-25T06:58:15.357Z,23.50
2019-05-25T07:00:46.534Z,23.50
2019-05-25T07:03:17.747Z,23.50
2019-05-25T07:05:48.379Z,23.60
2019-05-25T07:08:19.146Z,23.60
2019-05-25T07:10:50.083Z,23.60
2019-05-25T07:13:21.135Z,23.60
2019-05-25T07:15:52.426Z,23.60
2019-05-25T07:18:23.178Z,23.70
2019-05-25T07:20:54.192Z,23.60
2019-05-25T07:23:25.453Z,23.60
2019-05-25T07:25:56.336Z,23.60
2019-05-25T07:28:27.469Z,23.60
2019-05-25T07:30:58.538Z,23.70
2019-05-25T07:33:29.328Z,23.70
2019-05-25T07:36:00.505Z,23.70
2019-05-25T07:38:31.573Z,23.70
2019-05-25T07:41:02.496Z,23.70
2019-05-25T07:43:33.569Z,23.70
2019-05-25T07:46:04.374Z,23.80
2019-05-25T07:48:36.216Z,23.80
2019-05-25T07:51:07.270Z,23.80
2019-05-25T07:53:37.995Z,23.70
2019-05-25T07:56:08.817Z,23.80
2019-05-25T07:58:39.796Z,23.80
2019-05-25T08:01:10.615Z,23.80
2019-05-25T08:03:41.669Z,23.80
2019-05-25T08:06:12.476Z,23.80
2019-05-25T08:08:43.249Z,23.80
2019-05-25T08:11:13.979Z,23.80
2019-05-25T08:13:44.525Z,23.80
2019-05-25T08:16:18.621Z,23.80
2019-05-25T08:18:49.658Z,23.80
2019-05-25T08:21:20.662Z,23.80
2019-05-25T08:23:52.190Z,23.80
2019-05-25T08:26:23.225Z,23.80
2019-05-25T08:28:54.348Z,23.80
2019-05-25T08:31:25.557Z,23.80
2019-05-25T08:33:57.438Z,23.80
2019-05-25T08:36:29.842Z,23.80
2019-05-25T08:39:00.976Z,23.80
2019-05-25T08:41:32.080Z,23.80
2019-05-25T08:44:04.545Z,23.80
2019-05-25T08:46:35.513Z,23.80
2019-05-25T08:49:06.111Z,23.80
2019-05-25T08:51:36.993Z,23.80
2019-05-25T08:54:07.674Z,23.80
2019-05-25T08:56:38.614Z,23.80
2019-05-25T08:59:09.371Z,23.80
2019-05-25T09:01:40.319Z,23.80
2019-05-25T09:04:11.318Z,23.80
2019-05-25T09:06:42.293Z,23.80
2019-05-25T09:09:13.218Z,23.70
2019-05-25T09:11:44.400Z,23.70
2019-05-25T09:14:15.327Z,23.70
2019-05-25T09:16:46.265Z,23.70
2019-05-25T09:19:17.181Z,23.70
2019-05-25T09:22:01.513Z,23.70
2019-05-25T09:24:21.009Z,23.70
2019-05-25T09:26:52.058Z,23.70
2019-05-25T09:29:22.797Z,23.70
2019-05-25T09:31:53.413Z,23.70
2019-05-25T09:34:24.135Z,23.70
2019-05-25T09:36:55.146Z,23.70
2019-05-25T09:39:25.732Z,23.70
2019-05-25T09:41:56.375Z,23.70
2019-05-25T09:44:27.187Z,23.70
2019-05-25T09:46:58.103Z,23.70
2019-05-25T09:49:28.971Z,23.80
2019-05-25T09:51:59.824Z,23.80
2019-05-25T09:54:30.699Z,23.80
2019-05-25T09:57:01.741Z,23.70
2019-05-25T09:59:32.351Z,23.80
2019-05-25T10:02:03.316Z,23.80
2019-05-25T10:04:33.980Z,23.80
2019-05-25T10:07:04.744Z,23.80
2019-05-25T10:09:35.355Z,23.80
2019-05-25T10:12:06.441Z,23.70
2019-05-25T10:14:37.420Z,23.80
2019-05-25T10:17:08.484Z,23.80
2019-05-25T10:19:39.567Z,23.80
2019-05-25T10:22:10.518Z,23.80
2019-05-25T10:24:41.298Z,23.80
2019-05-25T10:27:12.354Z,23.70
2019-05-25T10:29:43.473Z,23.70
2019-05-25T10:32:14.524Z,23.70
2019-05-25T10:34:47.891Z,23.70
2019-05-25T10:37:18.882Z,23.70
2019-05-25T10:39:50.396Z,23.80
2019-05-25T10:42:21.528Z,23.80
2019-05-25T10:44:52.748Z,23.80
2019-05-25T10:47:23.455Z,23.80
2019-05-25T10:49:54.593Z,23.80
2019-05-25T10:52:25.358Z,23.80
2019-05-25T10:54:56.294Z,23.80
2019-05-25T10:57:26.877Z,23.70
2019-05-25T10:59:57.768Z,23.80
2019-05-25T11:02:28.786Z,23.80
2019-05-25T11:04:59.681Z,23.80
2019-05-25T11:07:30.819Z,23.80
2019-05-25T11:10:02.036Z,23.80
2019-05-25T11:12:33.968Z,23.80
2019-05-25T11:15:04.953Z,23.80
2019-05-25T11:17:36.063Z,23.80
2019-05-25T11:20:07.411Z,23.80
2019-05-25T11:22:38.372Z,23.80
2019-05-25T11:25:09.809Z,23.80
2019-05-25T11:27:40.969Z,23.80
2019-05-25T11:30:13.359Z,23.80
2019-05-25T11:32:44.142Z,24.00
2019-05-25T11:35:15.132Z,24.10
2019-05-25T11:37:45.725Z,24.00
2019-05-25T11:40:16.700Z,24.00
2019-05-25T11:42:47.630Z,24.20
2019-05-25T11:45:18.683Z,24.30
2019-05-25T11:47:49.492Z,24.30
2019-05-25T11:50:20.430Z,24.40
2019-05-25T11:52:51.839Z,24.30
2019-05-25T11:55:23.051Z,24.40
2019-05-25T11:57:54.583Z,24.40
2019-05-25T12:00:26.278Z,24.30
2019-05-25T12:02:57.509Z,24.30
2019-05-25T12:05:29.330Z,24.30
2019-05-25T12:08:01.398Z,24.30
2019-05-25T12:10:32.453Z,24.30
2019-05-25T12:13:03.569Z,24.20
2019-05-25T12:15:34.705Z,24.30
2019-05-25T12:18:06.861Z,24.20
2019-05-25T12:20:38.077Z,24.20
2019-05-25T12:23:09.098Z,24.20
2019-05-25T12:25:41.667Z,24.20
2019-05-25T12:28:12.592Z,24.20
2019-05-25T12:30:43.458Z,24.10
2019-05-25T12:33:14.173Z,24.20
2019-05-25T12:35:45.334Z,24.20
2019-05-25T12:38:16.013Z,24.20
2019-05-25T12:40:53.545Z,24.10
2019-05-25T12:43:19.281Z,24.20
2019-05-25T12:45:49.997Z,24.10
2019-05-25T12:48:20.913Z,24.10
2019-05-25T12:50:51.700Z,24.10
2019-05-25T12:53:22.639Z,24.10
2019-05-25T12:55:54.034Z,24.10
2019-05-25T12:58:24.820Z,24.10
2019-05-25T13:00:56.528Z,24.10
2019-05-25T13:03:28.541Z,24.10
2019-05-25T13:05:59.148Z,24.10
2019-05-25T13:08:30.213Z,24.10
2019-05-25T13:11:02.064Z,24.00
2019-05-25T13:13:33.355Z,24.10
2019-05-25T13:16:04.377Z,24.00
2019-05-25T13:18:35.426Z,24.10
2019-05-25T13:21:06.353Z,24.10
2019-05-25T13:23:36.999Z,24.10
2019-05-25T13:26:13.566Z,24.10
2019-05-25T13:28:44.359Z,24.10
2019-05-25T13:31:15.218Z,24.10
2019-05-25T13:33:45.928Z,24.10
2019-05-25T13:36:16.883Z,24.10
2019-05-25T13:38:47.598Z,24.00
2019-05-25T13:41:20.635Z,24.10
2019-05-25T13:43:51.521Z,24.00
2019-05-25T13:46:22.176Z,24.00
2019-05-25T13:48:52.829Z,24.10
2019-05-25T13:51:23.687Z,24.10
2019-05-25T13:53:54.582Z,24.00
2019-05-25T13:56:25.527Z,24.10
2019-05-25T13:58:56.550Z,24.10
2019-05-25T14:01:28.617Z,24.10
2019-05-25T14:03:59.853Z,24.00
2019-05-25T14:06:30.710Z,24.00
2019-05-25T14:09:01.462Z,24.00
2019-05-25T14:11:32.113Z,24.10
2019-05-25T14:14:03.104Z,24.10
2019-05-25T14:16:34.066Z,24.10
2019-05-25T14:19:04.884Z,24.10
2019-05-25T14:21:35.782Z,24.10
2019-05-25T14:24:06.857Z,24.10
2019-05-25T14:26:37.543Z,24.10
2019-05-25T14:29:08.325Z,24.10
2019-05-25T14:31:45.526Z,24.10
2019-05-25T14:34:11.481Z,24.10
2019-05-25T14:36:42.271Z,24.10
2019-05-25T14:39:13.049Z,24.00
2019-05-25T14:41:43.882Z,24.00
2019-05-25T14:44:14.719Z,24.00
2019-05-25T14:46:45.577Z,24.00
2019-05-25T14:49:16.056Z,24.00
2019-05-25T14:51:46.942Z,24.10
2019-05-25T14:54:17.772Z,24.20
2019-05-25T14:56:48.701Z,24.20
2019-05-25T14:59:19.505Z,24.10
2019-05-25T15:02:01.922Z,24.10
2019-05-25T15:04:23.017Z,24.20
2019-05-25T15:06:54.071Z,24.10
2019-05-25T15:09:24.941Z,24.20
2019-05-25T15:11:55.694Z,24.10
2019-05-25T15:14:26.482Z,24.20
2019-05-25T15:16:57.140Z,24.20
2019-05-25T15:19:28.084Z,24.10
2019-05-25T15:21:58.739Z,24.10
2019-05-25T15:24:29.556Z,24.10
2019-05-25T15:27:00.845Z,24.10
2019-05-25T15:29:31.764Z,24.00
2019-05-25T15:32:18.840Z,24.00
2019-05-25T15:34:35.271Z,24.10
2019-05-25T15:37:05.966Z,24.10
2019-05-25T15:39:36.908Z,24.10
2019-05-25T15:42:07.865Z,24.10
2019-05-25T15:44:38.778Z,24.10
2019-05-25T15:47:09.432Z,24.10
2019-05-25T15:49:40.172Z,24.00
2019-05-25T15:52:10.999Z,24.00
2019-05-25T15:54:41.913Z,24.10
2019-05-25T15:57:13.061Z,24.10
2019-05-25T15:59:43.952Z,24.10
2019-05-25T16:02:14.702Z,24.10
2019-05-25T16:04:45.583Z,24.10
2019-05-25T16:07:16.383Z,24.10
2019-05-25T16:09:49.189Z,24.10
2019-05-25T16:12:21.014Z,24.10
2019-05-25T16:14:52.239Z,24.10
2019-05-25T16:17:26.157Z,24.00
2019-05-25T16:19:56.563Z,24.00
2019-05-25T16:22:27.767Z,24.00
2019-05-25T16:25:01.542Z,24.10
2019-05-25T16:27:33.906Z,24.00
2019-05-25T16:30:05.062Z,24.10
2019-05-25T16:33:07.272Z,24.00
2019-05-25T16:35:10.143Z,24.00
2019-05-25T16:37:41.433Z,24.00
2019-05-25T16:40:12.915Z,24.00
2019-05-25T16:42:44.363Z,24.00
2019-05-25T16:45:15.151Z,24.00
2019-05-25T16:47:46.899Z,24.00
2019-05-25T16:50:20.526Z,24.00
2019-05-25T16:52:53.030Z,24.00
2019-05-25T16:55:24.688Z,24.00
2019-05-25T16:57:57.240Z,24.00
2019-05-25T17:00:32.206Z,24.00
2019-05-25T17:03:02.844Z,24.00
2019-05-25T17:05:35.967Z,24.00
2019-05-25T17:08:07.851Z,24.00
2019-05-25T17:10:39.150Z,24.00
2019-05-25T17:13:11.270Z,24.00
2019-05-25T17:15:49.581Z,24.00
2019-05-25T17:18:20.518Z,23.90
2019-05-25T17:20:52.921Z,24.00
2019-05-25T17:23:23.913Z,23.90
2019-05-25T17:25:54.757Z,23.90
2019-05-25T17:28:25.625Z,23.90
2019-05-25T17:30:56.630Z,23.90
2019-05-25T17:33:42.581Z,23.90
2019-05-25T17:36:00.321Z,23.90
2019-05-25T17:38:31.205Z,23.90
2019-05-25T17:41:02.022Z,23.90
2019-05-25T17:43:32.805Z,23.90
2019-05-25T17:46:03.873Z,23.90
2019-05-25T17:48:34.863Z,23.90
2019-05-25T17:51:05.470Z,24.00
2019-05-25T17:53:36.368Z,24.00
2019-05-25T17:56:06.976Z,24.00
2019-05-25T17:58:37.459Z,23.90
2019-05-25T18:01:08.045Z,23.90
2019-05-25T18:03:38.557Z,23.90
2019-05-25T18:06:09.087Z,23.90
2019-05-25T18:08:40.130Z,23.90
2019-05-25T18:11:11.273Z,23.90
2019-05-25T18:13:42.160Z,23.90
2019-05-25T18:16:16.580Z,23.90
2019-05-25T18:18:47.413Z,23.90
2019-05-25T18:21:24.759Z,23.90
2019-05-25T18:23:55.938Z,23.90
2019-05-25T18:26:27.217Z,23.90
2019-05-25T18:28:58.127Z,23.90
2019-05-25T18:31:28.981Z,23.80
2019-05-25T18:33:59.803Z,23.80
2019-05-25T18:36:30.721Z,23.80
2019-05-25T18:39:01.781Z,23.80
2019-05-25T18:41:32.706Z,23.80
2019-05-25T18:44:03.373Z,23.90
2019-05-25T18:46:34.186Z,23.90
2019-05-25T18:49:05.221Z,23.80
2019-05-25T18:51:36.349Z,23.80
2019-05-25T18:54:07.627Z,23.80
2019-05-25T18:56:38.882Z,23.80
2019-05-25T18:59:11.760Z,23.80
2019-05-25T19:01:44.265Z,23.80
2019-05-25T19:04:17.049Z,23.80
2019-05-25T19:06:49.968Z,23.80
2019-05-25T19:09:22.202Z,23.80
2019-05-25T19:11:54.261Z,23.80
2019-05-25T19:14:26.833Z,23.80
2019-05-25T19:16:58.855Z,23.80
2019-05-25T19:19:31.497Z,23.80
2019-05-25T19:22:04.691Z,23.80
2019-05-25T19:24:37.916Z,23.80
2019-05-25T19:27:09.135Z,23.80
2019-05-25T19:29:41.298Z,23.80
2019-05-25T19:32:13.516Z,23.80
2019-05-25T19:34:58.604Z,23.80
2019-05-25T19:37:19.580Z,23.80
2019-05-25T19:39:51.887Z,23.80
2019-05-25T19:42:24.070Z,23.80
2019-05-25T19:44:55.813Z,23.80
2019-05-25T19:47:28.048Z,23.80
2019-05-25T19:50:03.982Z,23.80
2019-05-25T19:52:33.926Z,23.80
2019-05-25T19:55:07.908Z,23.90
2019-05-25T19:57:45.238Z,23.90
2019-05-25T20:00:16.833Z,24.00
2019-05-25T20:02:51.163Z,24.10
2019-05-25T20:05:25.397Z,24.20
2019-05-25T20:07:58.957Z,24.30
2019-05-25T20:10:32.054Z,24.30
2019-05-25T20:13:03.421Z,24.30
2019-05-25T20:15:34.399Z,24.30
2019-05-25T20:18:05.399Z,24.30
2019-05-25T20:20:36.799Z,24.30
2019-05-25T20:23:07.589Z,24.30
2019-05-25T20:25:38.308Z,24.30
2019-05-25T20:28:09.308Z,24.40
2019-05-25T20:30:40.209Z,24.40
2019-05-25T20:33:11.361Z,24.40
2019-05-25T20:35:42.563Z,24.40
2019-05-25T20:38:13.469Z,24.40
2019-05-25T20:40:46.123Z,24.20
2019-05-25T20:43:18.653Z,24.20
2019-05-25T20:45:49.954Z,24.20
2019-05-25T20:48:28.423Z,24.30
2019-05-25T20:51:01.732Z,24.50
2019-05-25T20:53:36.966Z,24.50
2019-05-25T20:56:10.891Z,24.70
2019-05-25T20:58:44.671Z,24.80
2019-05-25T21:01:17.531Z,24.80
2019-05-25T21:03:50.963Z,24.80
2019-05-25T21:06:23.270Z,24.70
2019-05-25T21:09:00.412Z,24.60
2019-05-25T21:11:33.063Z,24.40
2019-05-25T21:14:05.913Z,24.40
2019-05-25T21:16:38.273Z,24.30
2019-05-25T21:19:09.593Z,24.20
2019-05-25T21:21:41.204Z,24.20
2019-05-25T21:24:13.242Z,24.20
2019-05-25T21:26:45.385Z,24.10
2019-05-25T21:29:19.113Z,24.10
2019-05-25T21:31:51.085Z,24.10
2019-05-25T21:34:24.432Z,24.10
2019-05-25T21:36:56.383Z,24.00
2019-05-25T21:39:28.500Z,24.00
2019-05-25T21:41:59.630Z,24.00
2019-05-25T21:44:30.517Z,24.00
2019-05-25T21:47:01.203Z,24.00
2019-05-25T21:49:31.917Z,24.00
2019-05-25T21:52:02.750Z,23.90
2019-05-25T21:54:33.853Z,23.90
2019-05-25T21:57:04.683Z,23.90
2019-05-25T21:59:35.471Z,23.90
2019-05-25T22:02:06.216Z,24.00
2019-05-25T22:04:37.376Z,24.00
2019-05-25T22:07:21.595Z,24.00
2019-05-25T22:09:55.287Z,24.00
2019-05-25T22:12:26.311Z,24.00
2019-05-25T22:14:57.207Z,24.00
2019-05-25T22:17:28.002Z,24.00
2019-05-25T22:19:58.754Z,24.00
2019-05-25T22:22:29.795Z,24.00
2019-05-25T22:25:00.498Z,24.00
2019-05-25T22:27:31.444Z,24.10
2019-05-25T22:30:02.588Z,24.10
2019-05-25T22:32:33.538Z,24.10
2019-05-25T22:35:04.499Z,24.10
2019-05-25T22:37:35.387Z,24.10
2019-05-25T22:40:06.410Z,24.10
2019-05-25T22:42:37.346Z,24.10
2019-05-25T22:45:08.159Z,24.10
2019-05-25T22:47:39.148Z,24.00
2019-05-25T22:50:10.126Z,24.10
2019-05-25T22:52:40.994Z,24.00
2019-05-25T22:55:11.611Z,24.00
2019-05-25T22:57:42.116Z,24.10
2019-05-25T23:00:12.790Z,24.10
2019-05-25T23:02:43.911Z,24.00
2019-05-25T23:05:14.921Z,24.00
2019-05-25T23:07:46.108Z,24.00
2019-05-25T23:10:17.624Z,24.00
2019-05-25T23:12:48.920Z,24.00
2019-05-25T23:15:19.624Z,24.00
2019-05-25T23:17:50.174Z,24.00
2019-05-25T23:20:20.966Z,24.00
2019-05-25T23:22:51.920Z,24.00
2019-05-25T23:25:22.872Z,24.10
2019-05-25T23:27:53.631Z,24.10
2019-05-25T23:30:24.143Z,24.10
2019-05-25T23:32:54.784Z,24.10
2019-05-25T23:35:25.727Z,24.00
2019-05-25T23:37:56.500Z,24.00
2019-05-25T23:40:27.552Z,24.00
2019-05-25T23:42:58.583Z,24.00
2019-05-25T23:45:29.459Z,24.00
2019-05-25T23:48:00.436Z,24.00
2019-05-25T23:50:31.357Z,24.00
2019-05-25T23:53:02.484Z,24.00
2019-05-25T23:55:33.424Z,24.00
2019-05-25T23:58:04.057Z,24.00
